createdAt,value
2023-02-15T00:02:01.341Z,11.04
2023-02-15T00:04:47.382Z,11.05
2023-02-15T00:07:18.696Z,11.04
2023-02-15T00:09:48.875Z,11.07
2023-02-15T00:12:17.569Z,11.10
2023-02-15T00:14:44.501Z,11.10
2023-02-15T00:17:11.491Z,11.07
2023-02-15T00:19:38.371Z,11.05
2023-02-15T00:22:05.697Z,11.08
2023-02-15T00:24:32.783Z,11.08
2023-02-15T00:26:59.707Z,11.10
2023-02-15T00:29:26.528Z,11.10
2023-02-15T00:31:53.671Z,11.12
2023-02-15T00:34:23.816Z,11.11
2023-02-15T00:36:50.788Z,11.14
2023-02-15T00:39:18.615Z,11.14
2023-02-15T00:41:46.486Z,11.16
2023-02-15T00:44:14.163Z,11.15
2023-02-15T00:46:41.305Z,11.12
2023-02-15T00:49:08.305Z,11.11
2023-02-15T00:51:35.051Z,11.11
2023-02-15T00:54:01.838Z,11.10
2023-02-15T00:56:29.538Z,11.10
2023-02-15T00:58:56.641Z,11.13
2023-02-15T01:01:24.687Z,11.16
2023-02-15T01:03:51.786Z,11.17
2023-02-15T01:06:19.118Z,11.20
2023-02-15T01:08:47.133Z,11.21
2023-02-15T01:11:23.122Z,11.23
2023-02-15T01:13:56.174Z,11.22
2023-02-15T01:16:24.838Z,11.25
2023-02-15T01:18:52.080Z,11.22
2023-02-15T01:21:21.523Z,11.19
2023-02-15T01:23:49.162Z,11.11
2023-02-15T01:26:16.839Z,11.05
2023-02-15T01:28:43.639Z,10.99
2023-02-15T01:31:13.284Z,10.94
2023-02-15T01:33:40.149Z,10.75
2023-02-15T01:36:07.401Z,10.46
2023-02-15T01:38:35.584Z,9.95
2023-02-15T01:41:21.386Z,9.60
2023-02-15T01:44:03.077Z,9.26
2023-02-15T01:46:45.916Z,8.94
2023-02-15T01:49:20.181Z,8.66
2023-02-15T01:51:49.996Z,8.51
2023-02-15T01:54:22.684Z,8.33
2023-02-15T01:56:49.909Z,8.23
2023-02-15T01:59:22.235Z,8.12
2023-02-15T02:01:51.478Z,8.04
2023-02-15T02:04:32.539Z,7.95
2023-02-15T02:07:00.777Z,7.88
2023-02-15T02:09:27.677Z,7.81
2023-02-15T02:11:55.512Z,7.75
2023-02-15T02:14:23.737Z,7.70
2023-02-15T02:17:11.300Z,7.60
2023-02-15T02:19:59.713Z,7.59
2023-02-15T02:22:54.416Z,7.59
2023-02-15T02:25:39.180Z,7.58
2023-02-15T02:28:24.606Z,7.54
2023-02-15T02:31:05.465Z,7.49
2023-02-15T02:33:41.326Z,7.49
2023-02-15T02:36:14.173Z,7.47
2023-02-15T02:39:05.030Z,7.47
2023-02-15T02:41:34.836Z,7.45
2023-02-15T02:44:25.869Z,7.43
2023-02-15T02:47:20.564Z,7.45
2023-02-15T02:49:47.296Z,7.43
2023-02-15T02:52:46.309Z,7.38
2023-02-15T02:55:20.968Z,7.34
2023-02-15T02:58:01.123Z,7.32
2023-02-15T03:00:32.741Z,7.25
2023-02-15T03:03:12.186Z,7.20
2023-02-15T03:05:42.630Z,7.15
2023-02-15T03:08:11.069Z,7.11
2023-02-15T03:10:40.359Z,7.07
2023-02-15T03:13:08.701Z,7.05
2023-02-15T03:15:58.461Z,7.03
2023-02-15T03:18:34.297Z,6.97
2023-02-15T03:21:04.218Z,6.99
2023-02-15T03:23:33.048Z,6.98
2023-02-15T03:26:04.345Z,6.98
2023-02-15T03:28:34.628Z,6.95
2023-02-15T03:31:05.753Z,6.92
2023-02-15T03:33:34.295Z,6.90
2023-02-15T03:36:29.959Z,6.90
2023-02-15T03:39:12.018Z,6.89
2023-02-15T03:41:49.460Z,6.89
2023-02-15T03:44:32.159Z,6.87
2023-02-15T03:47:07.888Z,6.87
2023-02-15T03:49:44.202Z,6.84
2023-02-15T03:52:14.450Z,6.86
2023-02-15T03:54:45.071Z,6.83
2023-02-15T03:57:45.619Z,6.82
2023-02-15T04:00:55.278Z,6.78
2023-02-15T04:03:25.701Z,6.76
2023-02-15T04:05:52.490Z,6.76
2023-02-15T04:08:19.335Z,6.74
2023-02-15T04:10:57.209Z,6.72
2023-02-15T04:13:30.868Z,6.70
2023-02-15T04:16:04.839Z,6.69
2023-02-15T04:18:56.867Z,6.69
2023-02-15T04:21:44.610Z,6.67
2023-02-15T04:24:30.914Z,6.65
2023-02-15T04:26:57.939Z,6.59
2023-02-15T04:29:25.931Z,6.59
2023-02-15T04:31:54.336Z,6.57
2023-02-15T04:34:22.016Z,6.55
2023-02-15T04:36:48.827Z,6.57
2023-02-15T04:39:17.146Z,6.55
2023-02-15T04:41:44.658Z,6.54
2023-02-15T04:44:11.453Z,6.55
2023-02-15T04:46:38.606Z,6.55
2023-02-15T04:49:05.380Z,6.55
2023-02-15T04:51:32.177Z,6.58
2023-02-15T04:53:58.945Z,6.61
2023-02-15T04:56:25.777Z,6.62
2023-02-15T04:58:52.522Z,6.61
2023-02-15T05:01:19.510Z,6.63
2023-02-15T05:03:46.319Z,6.64
2023-02-15T05:06:13.021Z,6.67
2023-02-15T05:08:39.772Z,6.63
2023-02-15T05:11:06.734Z,6.64
2023-02-15T05:13:33.685Z,6.65
2023-02-15T05:16:00.818Z,6.64
2023-02-15T05:18:27.782Z,6.64
2023-02-15T05:20:54.671Z,6.64
2023-02-15T05:23:21.443Z,6.62
2023-02-15T05:26:08.700Z,6.59
2023-02-15T05:28:37.198Z,6.55
2023-02-15T05:31:15.759Z,6.52
2023-02-15T05:33:43.485Z,6.52
2023-02-15T05:36:10.531Z,6.53
2023-02-15T05:38:40.655Z,6.53
2023-02-15T05:41:08.245Z,6.54
2023-02-15T05:43:35.341Z,6.53
2023-02-15T05:46:03.266Z,6.51
2023-02-15T05:48:30.306Z,6.48
2023-02-15T05:51:06.212Z,6.48
2023-02-15T05:53:34.879Z,6.46
2023-02-15T05:56:03.674Z,6.44
2023-02-15T05:58:36.314Z,6.40
2023-02-15T06:01:32.392Z,6.37
2023-02-15T06:03:59.220Z,6.37
2023-02-15T06:06:26.115Z,6.35
2023-02-15T06:08:52.947Z,6.35
2023-02-15T06:11:19.715Z,6.37
2023-02-15T06:13:46.512Z,6.39
2023-02-15T06:16:13.299Z,6.38
2023-02-15T06:18:40.108Z,6.40
2023-02-15T06:21:06.916Z,6.38
2023-02-15T06:23:33.909Z,6.43
2023-02-15T06:26:01.146Z,6.43
2023-02-15T06:28:28.165Z,6.43
2023-02-15T06:30:54.952Z,6.41
2023-02-15T06:33:22.086Z,6.41
2023-02-15T06:35:48.798Z,6.36
2023-02-15T06:38:15.811Z,6.31
2023-02-15T06:40:42.657Z,6.22
2023-02-15T06:43:09.555Z,6.12
2023-02-15T06:45:36.284Z,6.00
2023-02-15T06:48:03.054Z,5.88
2023-02-15T06:50:29.788Z,5.79
2023-02-15T06:52:58.186Z,5.70
2023-02-15T06:55:25.266Z,5.61
2023-02-15T06:57:52.331Z,5.54
2023-02-15T07:00:19.499Z,5.49
2023-02-15T07:02:46.873Z,5.38
2023-02-15T07:05:13.793Z,5.33
2023-02-15T07:07:40.671Z,5.28
2023-02-15T07:10:07.941Z,5.22
2023-02-15T07:12:43.800Z,5.18
2023-02-15T07:15:12.325Z,5.08
2023-02-15T07:17:39.429Z,5.02
2023-02-15T07:20:10.459Z,4.99
2023-02-15T07:22:38.342Z,4.93
2023-02-15T07:25:06.751Z,4.86
2023-02-15T07:27:33.733Z,4.79
2023-02-15T07:30:01.605Z,4.74
2023-02-15T07:32:33.284Z,4.71
2023-02-15T07:35:00.696Z,4.69
2023-02-15T07:37:28.887Z,4.64
2023-02-15T07:39:55.843Z,4.60
2023-02-15T07:42:23.166Z,4.57
2023-02-15T07:44:50.475Z,4.53
2023-02-15T07:47:17.231Z,4.51
2023-02-15T07:49:43.999Z,4.51
2023-02-15T07:52:10.794Z,4.55
2023-02-15T07:54:37.579Z,4.56
2023-02-15T07:57:04.460Z,4.55
2023-02-15T07:59:31.427Z,4.56
2023-02-15T08:01:58.319Z,4.57
2023-02-15T08:04:25.704Z,4.60
2023-02-15T08:06:55.902Z,4.65
2023-02-15T08:09:23.647Z,4.68
2023-02-15T08:11:50.840Z,4.72
2023-02-15T08:14:23.215Z,4.79
2023-02-15T08:16:52.373Z,4.85
2023-02-15T08:19:22.259Z,4.93
2023-02-15T08:21:51.988Z,4.98
2023-02-15T08:24:21.969Z,5.03
2023-02-15T08:26:49.773Z,5.06
2023-02-15T08:29:18.974Z,5.09
2023-02-15T08:31:46.905Z,5.36
2023-02-15T08:34:17.626Z,5.63
2023-02-15T08:36:46.687Z,5.87
2023-02-15T08:39:15.389Z,6.15
2023-02-15T08:41:47.549Z,6.36
2023-02-15T08:44:16.980Z,6.58
2023-02-15T08:46:45.330Z,6.80
2023-02-15T08:49:14.735Z,7.00
2023-02-15T08:51:41.568Z,7.16
2023-02-15T08:54:15.463Z,7.33
2023-02-15T08:56:44.196Z,7.51
2023-02-15T08:59:16.511Z,7.71
2023-02-15T09:01:43.697Z,7.81
2023-02-15T09:04:11.221Z,7.90
2023-02-15T09:06:40.213Z,8.04
2023-02-15T09:09:08.611Z,8.14
2023-02-15T09:11:41.451Z,8.21
2023-02-15T09:14:14.631Z,8.40
2023-02-15T09:16:45.977Z,8.51
2023-02-15T09:19:12.953Z,8.70
2023-02-15T09:21:40.247Z,8.81
2023-02-15T09:24:10.485Z,8.97
2023-02-15T09:26:41.630Z,9.12
2023-02-15T09:29:09.894Z,9.32
2023-02-15T09:31:46.184Z,9.47
2023-02-15T09:34:14.403Z,9.50
2023-02-15T09:36:41.730Z,9.51
2023-02-15T09:39:14.071Z,9.60
2023-02-15T09:42:01.787Z,9.65
2023-02-15T09:44:47.024Z,9.68
2023-02-15T09:47:32.693Z,9.81
2023-02-15T09:50:05.387Z,9.83
2023-02-15T09:52:36.620Z,9.90
2023-02-15T09:55:12.285Z,9.97
2023-02-15T09:57:51.181Z,10.12
2023-02-15T10:00:26.888Z,10.09
2023-02-15T10:03:31.581Z,10.08
2023-02-15T10:05:58.283Z,10.08
2023-02-15T10:08:31.017Z,10.12
2023-02-15T10:11:37.078Z,10.31
2023-02-15T10:14:40.993Z,10.40
2023-02-15T10:17:46.670Z,10.48
2023-02-15T10:20:25.219Z,10.50
2023-02-15T10:23:10.128Z,10.52
2023-02-15T10:25:39.880Z,10.73
2023-02-15T10:28:14.596Z,10.78
2023-02-15T10:30:51.683Z,10.86
2023-02-15T10:33:29.040Z,10.85
2023-02-15T10:36:01.854Z,10.96
2023-02-15T10:38:41.956Z,11.02
2023-02-15T10:41:47.308Z,11.12
2023-02-15T10:44:47.196Z,11.28
2023-02-15T10:47:25.258Z,11.45
2023-02-15T10:50:00.999Z,11.46
2023-02-15T10:52:52.456Z,11.41
2023-02-15T10:55:40.375Z,11.56
2023-02-15T10:58:22.418Z,11.55
2023-02-15T11:01:14.652Z,11.59
2023-02-15T11:03:44.521Z,11.70
2023-02-15T11:06:16.134Z,11.70
2023-02-15T11:08:58.644Z,11.77
2023-02-15T11:11:33.489Z,11.95
2023-02-15T11:14:07.165Z,11.97
2023-02-15T11:16:39.160Z,11.88
2023-02-15T11:19:14.734Z,11.88
2023-02-15T11:21:45.523Z,11.91
2023-02-15T11:24:15.887Z,12.10
2023-02-15T11:26:49.712Z,12.09
2023-02-15T11:29:22.508Z,12.23
2023-02-15T11:31:55.051Z,12.21
2023-02-15T11:34:31.077Z,12.23
2023-02-15T11:37:04.518Z,12.17
2023-02-15T11:39:32.937Z,12.17
2023-02-15T11:42:12.494Z,12.14
2023-02-15T11:44:57.899Z,12.13
2023-02-15T11:47:24.673Z,12.20
2023-02-15T11:49:51.476Z,12.19
2023-02-15T11:52:19.648Z,12.25
2023-02-15T11:54:52.957Z,12.27
2023-02-15T11:57:40.023Z,12.11
2023-02-15T12:00:32.607Z,12.15
2023-02-15T12:02:59.726Z,12.19
2023-02-15T12:05:27.224Z,12.34
2023-02-15T12:08:02.236Z,12.19
2023-02-15T12:10:35.051Z,12.22
2023-02-15T12:13:22.450Z,12.14
2023-02-15T12:15:55.535Z,12.25
2023-02-15T12:18:45.523Z,12.25
2023-02-15T12:21:15.917Z,12.44
2023-02-15T12:23:49.828Z,12.48
2023-02-15T12:26:35.365Z,12.45
2023-02-15T12:29:24.320Z,12.32
2023-02-15T12:31:53.695Z,12.43
2023-02-15T12:34:40.681Z,12.32
2023-02-15T12:37:18.041Z,12.26
2023-02-15T12:39:54.060Z,12.34
2023-02-15T12:42:21.470Z,12.53
2023-02-15T12:45:02.976Z,12.54
2023-02-15T12:47:32.359Z,12.66
2023-02-15T12:50:19.253Z,12.61
2023-02-15T12:52:48.737Z,12.67
2023-02-15T12:55:30.770Z,12.68
2023-02-15T12:58:20.354Z,12.63
2023-02-15T13:00:47.890Z,12.70
2023-02-15T13:03:20.972Z,12.49
2023-02-15T13:05:51.637Z,12.44
2023-02-15T13:08:32.819Z,12.20
2023-02-15T13:11:11.166Z,12.11
2023-02-15T13:13:57.682Z,11.91
2023-02-15T13:16:36.167Z,11.99
2023-02-15T13:19:17.499Z,11.86
2023-02-15T13:21:54.077Z,11.87
2023-02-15T13:24:25.371Z,11.86
2023-02-15T13:26:57.478Z,11.74
2023-02-15T13:29:37.306Z,11.74
2023-02-15T13:32:16.588Z,11.70
2023-02-15T13:34:43.469Z,11.78
2023-02-15T13:37:33.447Z,11.70
2023-02-15T13:40:09.241Z,11.76
2023-02-15T13:42:41.406Z,11.79
2023-02-15T13:45:17.278Z,11.75
2023-02-15T13:47:53.616Z,11.66
2023-02-15T13:50:38.429Z,11.71
2023-02-15T13:53:07.958Z,11.62
2023-02-15T13:55:48.270Z,11.60
2023-02-15T13:58:27.675Z,11.64
2023-02-15T14:01:10.383Z,11.65
2023-02-15T14:03:42.985Z,11.69
2023-02-15T14:06:30.811Z,11.67
2023-02-15T14:09:22.973Z,11.64
2023-02-15T14:11:58.466Z,11.69
2023-02-15T14:15:03.735Z,11.71
2023-02-15T14:17:59.557Z,11.78
2023-02-15T14:21:01.042Z,11.78
2023-02-15T14:23:50.302Z,11.82
2023-02-15T14:26:38.462Z,11.81
2023-02-15T14:29:34.081Z,11.81
2023-02-15T14:32:09.563Z,11.79
2023-02-15T14:35:19.106Z,11.70
2023-02-15T14:38:05.010Z,11.67
2023-02-15T14:41:00.523Z,11.59
2023-02-15T14:43:43.282Z,11.54
2023-02-15T14:46:25.928Z,11.58
2023-02-15T14:48:56.829Z,11.54
2023-02-15T14:51:45.140Z,11.53
2023-02-15T14:54:33.788Z,11.50
2023-02-15T14:57:03.344Z,11.51
2023-02-15T14:59:45.269Z,11.47
2023-02-15T15:02:22.084Z,11.49
2023-02-15T15:04:54.521Z,11.42
2023-02-15T15:07:49.727Z,11.28
2023-02-15T15:10:19.057Z,11.32
2023-02-15T15:12:46.586Z,11.33
2023-02-15T15:15:33.171Z,11.31
2023-02-15T15:18:07.547Z,11.24
2023-02-15T15:21:03.714Z,11.20
2023-02-15T15:23:43.210Z,11.19
2023-02-15T15:26:28.876Z,11.24
2023-02-15T15:28:59.957Z,11.17
2023-02-15T15:31:48.574Z,11.10
2023-02-15T15:34:18.096Z,11.10
2023-02-15T15:37:06.178Z,11.04
2023-02-15T15:39:54.474Z,10.95
2023-02-15T15:42:32.710Z,10.93
2023-02-15T15:45:21.366Z,10.97
2023-02-15T15:48:12.782Z,10.91
2023-02-15T15:50:43.548Z,10.87
2023-02-15T15:53:26.702Z,10.77
2023-02-15T15:56:00.597Z,10.71
2023-02-15T15:58:27.906Z,10.66
2023-02-15T16:01:04.813Z,10.57
2023-02-15T16:03:31.669Z,10.48
2023-02-15T16:06:01.736Z,10.47
2023-02-15T16:08:31.065Z,10.40
2023-02-15T16:10:58.916Z,10.35
2023-02-15T16:13:27.134Z,10.32
2023-02-15T16:15:56.426Z,10.24
2023-02-15T16:18:27.803Z,10.22
2023-02-15T16:20:56.642Z,10.13
2023-02-15T16:23:39.931Z,10.06
2023-02-15T16:26:43.830Z,10.02
2023-02-15T16:29:31.758Z,9.92
2023-02-15T16:32:18.865Z,9.88
2023-02-15T16:34:59.059Z,9.83
2023-02-15T16:37:33.649Z,9.76
2023-02-15T16:40:01.082Z,9.69
2023-02-15T16:42:27.946Z,9.65
2023-02-15T16:44:57.627Z,9.58
2023-02-15T16:47:29.804Z,9.51
2023-02-15T16:50:00.429Z,9.47
2023-02-15T16:52:29.216Z,9.45
2023-02-15T16:54:59.309Z,9.40
2023-02-15T16:57:30.088Z,9.36
2023-02-15T17:00:04.381Z,9.28
2023-02-15T17:02:54.441Z,9.23
2023-02-15T17:05:22.068Z,9.17
2023-02-15T17:08:03.960Z,9.15
2023-02-15T17:10:32.984Z,9.09
2023-02-15T17:13:18.735Z,9.04
2023-02-15T17:16:05.802Z,8.97
2023-02-15T17:18:38.576Z,8.96
2023-02-15T17:21:25.533Z,8.94
2023-02-15T17:23:57.649Z,8.92
2023-02-15T17:26:27.600Z,8.89
2023-02-15T17:28:58.200Z,8.89
2023-02-15T17:31:32.370Z,8.90
2023-02-15T17:34:00.377Z,8.89
2023-02-15T17:36:30.422Z,8.87
2023-02-15T17:39:07.974Z,8.88
2023-02-15T17:41:38.212Z,8.89
2023-02-15T17:44:05.597Z,8.90
2023-02-15T17:46:36.905Z,8.91
2023-02-15T17:49:03.942Z,8.89
2023-02-15T17:51:32.590Z,8.89
2023-02-15T17:54:18.362Z,8.89
2023-02-15T17:56:45.133Z,8.88
2023-02-15T17:59:14.141Z,8.87
2023-02-15T18:02:08.304Z,8.87
2023-02-15T18:04:56.048Z,8.81
2023-02-15T18:07:41.839Z,8.85
2023-02-15T18:10:35.559Z,8.85
2023-02-15T18:13:02.579Z,8.84
2023-02-15T18:15:29.840Z,8.85
2023-02-15T18:17:57.279Z,8.83
2023-02-15T18:20:33.146Z,8.83
2023-02-15T18:23:02.209Z,8.85
2023-02-15T18:25:29.332Z,8.85
2023-02-15T18:27:56.309Z,8.85
2023-02-15T18:30:26.726Z,8.82
2023-02-15T18:32:57.302Z,8.83
2023-02-15T18:35:28.502Z,8.83
2023-02-15T18:37:55.566Z,8.83
2023-02-15T18:40:25.650Z,8.83
2023-02-15T18:42:52.573Z,8.82
2023-02-15T18:45:32.581Z,8.83
2023-02-15T18:47:59.593Z,8.84
2023-02-15T18:50:31.196Z,8.84
2023-02-15T18:53:02.489Z,8.85
2023-02-15T18:55:29.288Z,8.85
2023-02-15T18:57:57.244Z,8.88
2023-02-15T19:00:29.189Z,8.88
2023-02-15T19:02:56.757Z,8.84
2023-02-15T19:05:24.174Z,8.85
2023-02-15T19:07:51.655Z,8.81
2023-02-15T19:10:21.743Z,8.79
2023-02-15T19:12:49.405Z,8.77
2023-02-15T19:15:18.521Z,8.76
2023-02-15T19:17:45.458Z,8.74
2023-02-15T19:20:40.973Z,8.74
2023-02-15T19:23:15.157Z,8.76
2023-02-15T19:25:42.641Z,8.76
2023-02-15T19:28:16.901Z,8.77
2023-02-15T19:30:43.732Z,8.79
2023-02-15T19:33:19.178Z,8.74
2023-02-15T19:35:48.350Z,8.79
2023-02-15T19:38:19.480Z,8.81
2023-02-15T19:40:47.080Z,8.83
2023-02-15T19:43:19.590Z,8.84
2023-02-15T19:45:46.990Z,8.87
2023-02-15T19:48:14.998Z,8.89
2023-02-15T19:50:43.815Z,8.89
2023-02-15T19:53:29.699Z,8.91
2023-02-15T19:55:56.509Z,8.95
2023-02-15T19:58:23.352Z,8.96
2023-02-15T20:00:51.964Z,8.94
2023-02-15T20:03:18.837Z,9.01
2023-02-15T20:05:45.814Z,8.99
2023-02-15T20:08:22.259Z,9.04
2023-02-15T20:10:49.682Z,9.09
2023-02-15T20:13:19.076Z,9.07
2023-02-15T20:15:46.826Z,9.11
2023-02-15T20:18:13.871Z,9.17
2023-02-15T20:20:54.830Z,9.20
2023-02-15T20:23:34.803Z,9.22
2023-02-15T20:26:12.570Z,9.27
2023-02-15T20:28:39.286Z,9.30
2023-02-15T20:31:06.651Z,9.31
2023-02-15T20:33:33.616Z,9.37
2023-02-15T20:36:00.416Z,9.41
2023-02-15T20:38:29.833Z,9.45
2023-02-15T20:41:17.505Z,9.49
2023-02-15T20:43:44.239Z,9.51
2023-02-15T20:46:11.025Z,9.54
2023-02-15T20:48:37.843Z,9.55
2023-02-15T20:51:05.232Z,9.53
2023-02-15T20:53:32.288Z,9.55
2023-02-15T20:55:59.118Z,9.58
2023-02-15T20:58:28.902Z,9.57
2023-02-15T21:00:57.937Z,9.59
2023-02-15T21:03:30.367Z,9.60
2023-02-15T21:05:58.060Z,9.58
2023-02-15T21:08:26.371Z,9.63
2023-02-15T21:10:54.261Z,9.68
2023-02-15T21:13:22.898Z,9.68
2023-02-15T21:15:51.338Z,9.72
2023-02-15T21:18:26.727Z,9.74
2023-02-15T21:20:56.131Z,9.78
2023-02-15T21:23:37.594Z,9.77
2023-02-15T21:26:04.304Z,9.81
2023-02-15T21:28:31.177Z,9.86
2023-02-15T21:30:58.569Z,9.89
2023-02-15T21:33:26.699Z,9.89
2023-02-15T21:35:55.865Z,9.93
2023-02-15T21:38:25.375Z,9.94
2023-02-15T21:40:52.330Z,9.94
2023-02-15T21:43:43.317Z,9.94
2023-02-15T21:46:34.034Z,9.93
2023-02-15T21:49:04.862Z,9.94
2023-02-15T21:51:50.321Z,9.94
2023-02-15T21:54:19.730Z,9.95
2023-02-15T21:56:48.804Z,9.97
2023-02-15T21:59:17.664Z,9.98
2023-02-15T22:01:51.543Z,9.98
2023-02-15T22:04:25.361Z,9.98
2023-02-15T22:06:53.151Z,10.01
2023-02-15T22:09:23.176Z,10.03
2023-02-15T22:11:51.525Z,9.99
2023-02-15T22:14:37.835Z,10.03
2023-02-15T22:17:15.097Z,9.98
2023-02-15T22:19:42.938Z,10.08
2023-02-15T22:22:09.742Z,10.09
2023-02-15T22:24:36.501Z,10.13
2023-02-15T22:27:03.434Z,10.16
2023-02-15T22:29:30.418Z,10.18
2023-02-15T22:31:57.265Z,10.20
2023-02-15T22:34:30.130Z,10.20
2023-02-15T22:36:57.821Z,10.19
2023-02-15T22:39:25.446Z,10.23
2023-02-15T22:41:53.206Z,10.25
2023-02-15T22:44:28.027Z,10.28
2023-02-15T22:46:55.144Z,10.28
2023-02-15T22:49:21.905Z,10.28
2023-02-15T22:51:49.412Z,10.28
2023-02-15T22:54:17.255Z,10.30
2023-02-15T22:56:47.724Z,10.30
2023-02-15T22:59:21.248Z,10.28
2023-02-15T23:01:48.930Z,10.28
2023-02-15T23:04:21.514Z,10.28
2023-02-15T23:06:48.704Z,10.29
2023-02-15T23:09:16.413Z,10.29
2023-02-15T23:11:44.334Z,10.29
2023-02-15T23:14:33.889Z,10.23
2023-02-15T23:17:00.685Z,10.28
2023-02-15T23:19:27.983Z,10.28
2023-02-15T23:21:54.958Z,10.30
2023-02-15T23:24:28.715Z,10.30
2023-02-15T23:27:16.249Z,10.30
2023-02-15T23:29:43.020Z,10.33
2023-02-15T23:32:13.088Z,10.33
2023-02-15T23:34:40.442Z,10.37
2023-02-15T23:37:07.288Z,10.38
2023-02-15T23:39:52.544Z,10.39
2023-02-15T23:42:22.415Z,10.41
2023-02-15T23:44:49.413Z,10.41
2023-02-15T23:47:41.955Z,10.42
2023-02-15T23:50:29.625Z,10.45
2023-02-15T23:52:57.327Z,10.48
2023-02-15T23:55:28.562Z,10.49
2023-02-15T23:57:55.304Z,10.52
